createdAt,value
2023-04-11T00:01:09.970Z,91.45
2023-04-11T00:03:38.016Z,90.59
2023-04-11T00:06:05.224Z,90.74
2023-04-11T00:08:31.750Z,90.79
2023-04-11T00:10:58.252Z,91.28
2023-04-11T00:13:26.594Z,91.76
2023-04-11T00:15:55.516Z,92.85
2023-04-11T00:18:22.804Z,93.83
2023-04-11T00:20:49.505Z,94.34
2023-04-11T00:23:16.250Z,94.99
2023-04-11T00:25:42.806Z,95.08
2023-04-11T00:28:09.633Z,95.36
2023-04-11T00:30:36.190Z,95.34
2023-04-11T00:33:03.962Z,95.56
2023-04-11T00:35:34.440Z,95.48
2023-04-11T00:38:02.316Z,95.75
2023-04-11T00:40:29.095Z,95.49
2023-04-11T00:42:56.308Z,95.00
2023-04-11T00:45:23.030Z,94.79
2023-04-11T00:47:49.904Z,94.46
2023-04-11T00:50:17.094Z,94.20
2023-04-11T00:52:46.394Z,94.24
2023-04-11T00:55:13.047Z,94.25
2023-04-11T00:57:39.635Z,94.30
2023-04-11T01:00:09.744Z,93.85
2023-04-11T01:02:37.986Z,92.14
2023-04-11T01:05:05.501Z,91.84
2023-04-11T01:07:32.596Z,91.84
2023-04-11T01:10:00.249Z,92.19
2023-04-11T01:12:27.297Z,92.59
2023-04-11T01:14:53.873Z,92.88
2023-04-11T01:17:21.953Z,93.36
2023-04-11T01:19:48.678Z,93.69
2023-04-11T01:22:18.033Z,93.54
2023-04-11T01:24:45.212Z,93.72
2023-04-11T01:27:12.040Z,93.50
2023-04-11T01:29:38.578Z,94.01
2023-04-11T01:32:05.327Z,94.33
2023-04-11T01:34:33.227Z,94.12
2023-04-11T01:37:00.091Z,93.82
2023-04-11T01:39:28.958Z,94.19
2023-04-11T01:41:58.236Z,95.00
2023-04-11T01:44:27.642Z,95.65
2023-04-11T01:46:58.164Z,96.13
2023-04-11T01:49:26.799Z,96.31
2023-04-11T01:51:53.515Z,96.62
2023-04-11T01:54:20.383Z,96.98
2023-04-11T01:56:47.058Z,97.88
2023-04-11T01:59:14.131Z,97.74
2023-04-11T02:01:42.893Z,98.77
2023-04-11T02:04:09.860Z,99.40
2023-04-11T02:06:39.261Z,99.77
2023-04-11T02:09:05.918Z,100.00
2023-04-11T02:11:32.548Z,99.71
2023-04-11T02:13:59.736Z,99.82
2023-04-11T02:16:30.058Z,99.59
2023-04-11T02:18:56.932Z,99.78
2023-04-11T02:21:23.746Z,99.27
2023-04-11T02:23:51.143Z,98.80
2023-04-11T02:26:17.933Z,98.98
2023-04-11T02:28:44.458Z,98.80
2023-04-11T02:31:11.238Z,98.77
2023-04-11T02:33:38.023Z,98.78
2023-04-11T02:36:05.121Z,99.23
2023-04-11T02:38:31.780Z,99.49
2023-04-11T02:41:00.037Z,99.73
2023-04-11T02:43:26.541Z,99.67
2023-04-11T02:46:02.115Z,99.10
2023-04-11T02:48:36.745Z,98.70
2023-04-11T02:51:04.538Z,99.29
2023-04-11T02:53:31.187Z,99.53
2023-04-11T02:55:57.790Z,99.45
2023-04-11T02:58:25.959Z,100.00
2023-04-11T03:00:56.269Z,99.96
2023-04-11T03:03:23.106Z,100.00
2023-04-11T03:05:49.865Z,100.00
2023-04-11T03:08:21.158Z,100.00
2023-04-11T03:10:51.576Z,100.00
2023-04-11T03:13:19.342Z,100.00
2023-04-11T03:15:46.045Z,100.00
2023-04-11T03:18:13.583Z,100.00
2023-04-11T03:20:43.659Z,100.00
2023-04-11T03:23:12.502Z,100.00
2023-04-11T03:25:39.072Z,100.00
2023-04-11T03:28:06.007Z,100.00
2023-04-11T03:30:33.217Z,100.00
2023-04-11T03:33:01.179Z,100.00
2023-04-11T03:35:29.362Z,100.00
2023-04-11T03:37:55.932Z,100.00
2023-04-11T03:40:22.550Z,100.00
2023-04-11T03:42:55.793Z,100.00
2023-04-11T03:45:27.072Z,100.00
2023-04-11T03:47:55.756Z,100.00
2023-04-11T03:50:26.691Z,100.00
2023-04-11T03:52:58.251Z,100.00
2023-04-11T03:55:26.081Z,100.00
2023-04-11T03:57:54.348Z,100.00
2023-04-11T04:00:23.772Z,100.00
2023-04-11T04:03:04.004Z,100.00
2023-04-11T04:05:31.558Z,100.00
2023-04-11T04:07:59.114Z,100.00
2023-04-11T04:10:38.097Z,100.00
2023-04-11T04:13:05.004Z,100.00
2023-04-11T04:15:39.604Z,100.00
2023-04-11T04:18:07.530Z,100.00
2023-04-11T04:20:46.699Z,100.00
2023-04-11T04:23:18.182Z,100.00
2023-04-11T04:26:04.222Z,100.00
2023-04-11T04:28:32.877Z,99.15
2023-04-11T04:31:04.077Z,94.91
2023-04-11T04:33:38.247Z,91.26
2023-04-11T04:36:14.043Z,90.16
2023-04-11T04:38:42.294Z,89.80
2023-04-11T04:41:15.604Z,89.35
2023-04-11T04:43:48.786Z,89.65
2023-04-11T04:46:23.688Z,89.87
2023-04-11T04:48:51.815Z,90.25
2023-04-11T04:51:18.433Z,90.84
2023-04-11T04:53:45.446Z,91.97
2023-04-11T04:56:12.059Z,92.79
2023-04-11T04:58:41.505Z,92.94
2023-04-11T05:01:11.778Z,92.90
2023-04-11T05:03:39.074Z,92.66
2023-04-11T05:06:10.749Z,92.14
2023-04-11T05:08:38.766Z,91.05
2023-04-11T05:11:07.315Z,90.34
2023-04-11T05:13:35.591Z,89.44
2023-04-11T05:16:04.393Z,89.34
2023-04-11T05:18:31.428Z,89.33
2023-04-11T05:20:58.358Z,89.04
2023-04-11T05:23:31.284Z,88.63
2023-04-11T05:26:01.293Z,88.80
2023-04-11T05:28:31.503Z,89.71
2023-04-11T05:30:58.799Z,90.31
2023-04-11T05:33:25.372Z,90.75
2023-04-11T05:35:52.490Z,90.79
2023-04-11T05:38:19.474Z,91.38
2023-04-11T05:40:46.356Z,91.80
2023-04-11T05:43:15.060Z,92.00
2023-04-11T05:45:41.823Z,91.95
2023-04-11T05:48:08.734Z,91.84
2023-04-11T05:50:35.623Z,92.08
2023-04-11T05:53:02.601Z,92.69
2023-04-11T05:55:29.519Z,92.38
2023-04-11T05:57:56.019Z,93.11
2023-04-11T06:00:24.218Z,93.03
2023-04-11T06:02:51.138Z,92.75
2023-04-11T06:05:18.036Z,92.55
2023-04-11T06:07:45.424Z,92.11
2023-04-11T06:10:11.949Z,92.62
2023-04-11T06:12:38.440Z,92.75
2023-04-11T06:15:05.976Z,92.11
2023-04-11T06:17:32.585Z,92.34
2023-04-11T06:19:59.123Z,92.16
2023-04-11T06:22:25.618Z,92.06
2023-04-11T06:24:52.185Z,91.33
2023-04-11T06:27:18.722Z,90.87
2023-04-11T06:29:45.310Z,88.49
2023-04-11T06:32:12.452Z,88.07
2023-04-11T06:34:39.190Z,87.48
2023-04-11T06:37:08.609Z,86.96
2023-04-11T06:39:35.235Z,86.22
2023-04-11T06:42:02.317Z,85.75
2023-04-11T06:44:31.804Z,84.92
2023-04-11T06:46:59.370Z,83.31
2023-04-11T06:49:26.786Z,82.47
2023-04-11T06:51:54.657Z,80.84
2023-04-11T06:54:21.680Z,79.19
2023-04-11T06:56:50.655Z,79.23
2023-04-11T06:59:19.683Z,78.14
2023-04-11T07:01:46.647Z,78.07
2023-04-11T07:04:13.358Z,77.63
2023-04-11T07:06:39.955Z,76.95
2023-04-11T07:09:06.538Z,75.71
2023-04-11T07:11:33.431Z,74.37
2023-04-11T07:14:00.454Z,73.33
2023-04-11T07:16:27.247Z,72.22
2023-04-11T07:18:54.238Z,71.17
2023-04-11T07:21:20.982Z,70.19
2023-04-11T07:23:47.745Z,70.61
2023-04-11T07:26:16.742Z,69.96
2023-04-11T07:28:45.135Z,69.18
2023-04-11T07:31:12.200Z,67.50
2023-04-11T07:33:38.871Z,65.44
2023-04-11T07:36:06.414Z,65.12
2023-04-11T07:38:33.379Z,63.74
2023-04-11T07:41:01.363Z,62.70
2023-04-11T07:43:28.591Z,62.27
2023-04-11T07:45:56.894Z,61.02
2023-04-11T07:48:24.377Z,59.15
2023-04-11T07:50:51.030Z,56.84
2023-04-11T07:53:17.628Z,55.71
2023-04-11T07:55:44.234Z,56.82
2023-04-11T07:58:10.966Z,56.81
2023-04-11T08:00:37.556Z,56.38
2023-04-11T08:03:11.254Z,55.63
2023-04-11T08:05:37.935Z,54.26
2023-04-11T08:08:05.045Z,53.86
2023-04-11T08:10:31.637Z,55.04
2023-04-11T08:12:58.764Z,55.92
2023-04-11T08:15:26.121Z,56.82
2023-04-11T08:17:56.260Z,58.25
2023-04-11T08:20:24.249Z,57.87
2023-04-11T08:22:50.853Z,59.20
2023-04-11T08:25:19.763Z,56.86
2023-04-11T08:27:46.296Z,57.38
2023-04-11T08:30:13.173Z,58.01
2023-04-11T08:32:40.824Z,56.83
2023-04-11T08:35:07.641Z,56.64
2023-04-11T08:37:34.273Z,58.96
2023-04-11T08:40:00.880Z,57.65
2023-04-11T08:42:28.516Z,58.05
2023-04-11T08:44:56.008Z,55.69
2023-04-11T08:47:22.984Z,55.62
2023-04-11T08:49:50.124Z,55.32
2023-04-11T08:52:17.403Z,54.55
2023-04-11T08:54:43.973Z,53.00
2023-04-11T08:57:14.744Z,53.94
2023-04-11T08:59:51.318Z,55.56
2023-04-11T09:02:18.360Z,54.96
2023-04-11T09:04:45.271Z,55.16
2023-04-11T09:07:12.341Z,56.76
2023-04-11T09:09:39.431Z,55.27
2023-04-11T09:12:06.330Z,55.58
2023-04-11T09:14:32.864Z,55.21
2023-04-11T09:17:06.757Z,55.33
2023-04-11T09:19:34.170Z,55.37
2023-04-11T09:22:01.782Z,56.50
2023-04-11T09:24:29.784Z,57.78
2023-04-11T09:27:09.929Z,56.37
2023-04-11T09:29:43.588Z,56.52
2023-04-11T09:32:32.875Z,56.28
2023-04-11T09:35:09.688Z,55.61
2023-04-11T09:37:44.286Z,56.24
2023-04-11T09:40:11.842Z,55.42
2023-04-11T09:42:38.522Z,55.06
2023-04-11T09:45:05.480Z,55.24
2023-04-11T09:47:33.187Z,54.37
2023-04-11T09:49:59.987Z,54.68
2023-04-11T09:52:27.012Z,54.27
2023-04-11T09:54:54.345Z,54.35
2023-04-11T09:57:23.057Z,54.01
2023-04-11T09:59:50.423Z,54.22
2023-04-11T10:02:17.002Z,55.17
2023-04-11T10:04:45.064Z,54.94
2023-04-11T10:07:17.097Z,55.56
2023-04-11T10:09:45.442Z,55.19
2023-04-11T10:12:12.009Z,55.29
2023-04-11T10:14:38.544Z,55.23
2023-04-11T10:17:23.943Z,55.53
2023-04-11T10:19:56.474Z,55.00
2023-04-11T10:22:41.841Z,54.40
2023-04-11T10:25:15.447Z,55.37
2023-04-11T10:27:49.039Z,55.26
2023-04-11T10:30:15.911Z,55.58
2023-04-11T10:33:02.456Z,56.61
2023-04-11T10:35:30.038Z,56.34
2023-04-11T10:37:56.578Z,57.63
2023-04-11T10:40:24.183Z,58.40
2023-04-11T10:42:51.610Z,59.59
2023-04-11T10:45:24.268Z,60.92
2023-04-11T10:47:57.213Z,61.81
2023-04-11T10:50:23.969Z,64.25
2023-04-11T10:52:50.689Z,66.36
2023-04-11T10:55:17.709Z,65.79
2023-04-11T10:58:03.032Z,70.24
2023-04-11T11:00:30.654Z,74.02
2023-04-11T11:03:00.171Z,73.23
2023-04-11T11:05:26.830Z,73.06
2023-04-11T11:07:53.989Z,73.42
2023-04-11T11:10:42.734Z,71.00
2023-04-11T11:13:09.743Z,72.09
2023-04-11T11:15:37.896Z,74.09
2023-04-11T11:18:05.459Z,74.81
2023-04-11T11:20:32.125Z,76.08
2023-04-11T11:22:59.604Z,77.42
2023-04-11T11:25:27.133Z,78.72
2023-04-11T11:28:04.076Z,79.22
2023-04-11T11:30:31.075Z,77.58
2023-04-11T11:32:57.720Z,78.29
2023-04-11T11:35:24.937Z,80.07
2023-04-11T11:37:52.673Z,78.88
2023-04-11T11:40:22.053Z,78.61
2023-04-11T11:42:49.769Z,79.36
2023-04-11T11:45:16.268Z,79.09
2023-04-11T11:47:43.352Z,79.89
2023-04-11T11:50:10.422Z,79.93
2023-04-11T11:52:37.463Z,79.79
2023-04-11T11:55:08.028Z,79.99
2023-04-11T11:57:36.827Z,80.38
2023-04-11T12:00:06.784Z,82.30
2023-04-11T12:02:35.039Z,83.42
2023-04-11T12:05:04.216Z,85.14
2023-04-11T12:07:32.764Z,85.85
2023-04-11T12:10:00.000Z,86.23
2023-04-11T12:12:36.666Z,86.12
2023-04-11T12:15:13.335Z,87.09
2023-04-11T12:17:40.273Z,86.88
2023-04-11T12:20:08.087Z,85.24
2023-04-11T12:22:34.831Z,85.20
2023-04-11T12:25:05.710Z,84.87
2023-04-11T12:27:35.208Z,85.38
2023-04-11T12:30:02.075Z,84.66
2023-04-11T12:32:28.817Z,83.66
2023-04-11T12:34:55.484Z,82.87
2023-04-11T12:37:22.122Z,81.97
2023-04-11T12:39:48.601Z,81.72
2023-04-11T12:42:18.615Z,81.38
2023-04-11T12:44:47.736Z,80.23
2023-04-11T12:47:14.256Z,79.24
2023-04-11T12:49:40.793Z,79.21
2023-04-11T12:52:07.585Z,78.21
2023-04-11T12:54:34.312Z,76.83
2023-04-11T12:57:01.386Z,76.85
2023-04-11T12:59:29.240Z,76.46
2023-04-11T13:01:57.554Z,75.82
2023-04-11T13:04:24.192Z,75.50
2023-04-11T13:06:52.402Z,76.10
2023-04-11T13:09:18.960Z,75.06
2023-04-11T13:11:45.709Z,74.51
2023-04-11T13:14:12.390Z,75.03
2023-04-11T13:16:38.977Z,75.50
2023-04-11T13:19:05.698Z,75.44
2023-04-11T13:21:32.841Z,75.15
2023-04-11T13:23:59.604Z,76.07
2023-04-11T13:26:26.580Z,78.32
2023-04-11T13:28:53.189Z,80.03
2023-04-11T13:31:19.707Z,77.97
2023-04-11T13:33:48.018Z,77.45
2023-04-11T13:36:14.551Z,77.12
2023-04-11T13:38:41.306Z,72.12
2023-04-11T13:41:07.924Z,70.13
2023-04-11T13:43:34.416Z,70.97
2023-04-11T13:46:01.077Z,71.75
2023-04-11T13:48:27.600Z,71.21
2023-04-11T13:50:57.526Z,73.00
2023-04-11T13:53:24.286Z,72.51
2023-04-11T13:55:51.282Z,72.51
2023-04-11T13:58:18.468Z,72.71
2023-04-11T14:00:45.108Z,70.42
2023-04-11T14:03:11.991Z,71.11
2023-04-11T14:05:38.719Z,71.45
2023-04-11T14:08:06.279Z,70.00
2023-04-11T14:10:32.976Z,70.88
2023-04-11T14:13:00.781Z,70.09
2023-04-11T14:15:27.371Z,69.13
2023-04-11T14:17:54.057Z,69.61
2023-04-11T14:20:20.866Z,68.40
2023-04-11T14:22:47.355Z,68.36
2023-04-11T14:25:13.934Z,67.87
2023-04-11T14:27:41.272Z,68.77
2023-04-11T14:30:12.174Z,69.24
2023-04-11T14:32:39.257Z,69.08
2023-04-11T14:35:07.872Z,68.55
2023-04-11T14:37:37.574Z,68.84
2023-04-11T14:40:10.998Z,68.04
2023-04-11T14:42:38.141Z,66.73
2023-04-11T14:45:05.890Z,65.90
2023-04-11T14:47:32.649Z,65.82
2023-04-11T14:49:59.166Z,65.86
2023-04-11T14:52:25.880Z,65.80
2023-04-11T14:54:52.498Z,65.82
2023-04-11T14:57:19.015Z,64.73
2023-04-11T14:59:45.517Z,65.35
2023-04-11T15:02:12.748Z,65.48
2023-04-11T15:04:39.354Z,64.42
2023-04-11T15:07:06.125Z,64.42
2023-04-11T15:09:33.292Z,64.23
2023-04-11T15:12:01.053Z,64.48
2023-04-11T15:14:29.557Z,63.88
2023-04-11T15:16:56.475Z,64.67
2023-04-11T15:19:23.200Z,65.03
2023-04-11T15:21:49.745Z,65.48
2023-04-11T15:24:17.044Z,65.30
2023-04-11T15:26:47.280Z,65.38
2023-04-11T15:29:15.816Z,66.01
2023-04-11T15:31:42.420Z,65.99
2023-04-11T15:34:08.993Z,65.12
2023-04-11T15:36:36.677Z,64.60
2023-04-11T15:39:04.582Z,64.38
2023-04-11T15:41:31.978Z,63.66
2023-04-11T15:44:00.483Z,63.61
2023-04-11T15:46:27.738Z,63.19
2023-04-11T15:48:54.274Z,63.19
2023-04-11T15:51:21.522Z,63.60
2023-04-11T15:53:48.450Z,63.90
2023-04-11T15:56:14.976Z,64.88
2023-04-11T15:58:42.079Z,65.58
2023-04-11T16:01:20.951Z,65.97
2023-04-11T16:03:48.134Z,65.85
2023-04-11T16:06:14.821Z,66.25
2023-04-11T16:08:41.317Z,66.08
2023-04-11T16:11:07.818Z,66.75
2023-04-11T16:13:34.374Z,68.42
2023-04-11T16:16:00.897Z,70.37
2023-04-11T16:18:27.580Z,73.30
2023-04-11T16:20:54.056Z,72.70
2023-04-11T16:23:20.552Z,72.76
2023-04-11T16:25:47.046Z,72.57
2023-04-11T16:28:14.217Z,72.34
2023-04-11T16:30:40.827Z,71.27
2023-04-11T16:33:07.437Z,71.03
2023-04-11T16:35:34.119Z,70.61
2023-04-11T16:38:00.670Z,71.13
2023-04-11T16:40:27.417Z,71.91
2023-04-11T16:42:53.865Z,71.06
2023-04-11T16:45:20.442Z,71.54
2023-04-11T16:47:46.961Z,71.42
2023-04-11T16:50:13.602Z,71.40
2023-04-11T16:52:40.508Z,70.13
2023-04-11T16:55:07.120Z,68.42
2023-04-11T16:57:33.842Z,68.63
2023-04-11T17:00:01.026Z,68.49
2023-04-11T17:02:27.792Z,69.10
2023-04-11T17:04:54.461Z,69.64
2023-04-11T17:07:21.098Z,69.61
2023-04-11T17:09:49.122Z,70.34
2023-04-11T17:12:16.363Z,69.76
2023-04-11T17:14:44.240Z,68.65
2023-04-11T17:17:10.890Z,68.07
2023-04-11T17:19:37.383Z,69.40
2023-04-11T17:22:05.800Z,71.75
2023-04-11T17:24:32.311Z,75.17
2023-04-11T17:26:59.344Z,75.71
2023-04-11T17:29:25.810Z,72.49
2023-04-11T17:31:52.433Z,73.50
2023-04-11T17:34:18.938Z,74.31
2023-04-11T17:36:45.899Z,75.92
2023-04-11T17:39:17.521Z,76.50
2023-04-11T17:41:45.315Z,78.27
2023-04-11T17:44:12.053Z,78.63
2023-04-11T17:46:38.609Z,79.27
2023-04-11T17:49:05.293Z,80.34
2023-04-11T17:51:31.788Z,80.86
2023-04-11T17:53:58.610Z,80.65
2023-04-11T17:56:25.619Z,80.78
2023-04-11T17:58:52.977Z,80.62
2023-04-11T18:01:19.570Z,80.26
2023-04-11T18:03:47.175Z,80.57
2023-04-11T18:06:13.860Z,80.66
2023-04-11T18:08:49.946Z,81.39
2023-04-11T18:11:17.412Z,82.18
2023-04-11T18:13:43.976Z,83.59
2023-04-11T18:16:10.948Z,84.19
2023-04-11T18:18:37.518Z,83.62
2023-04-11T18:21:05.804Z,84.12
2023-04-11T18:23:34.075Z,84.05
2023-04-11T18:26:00.579Z,84.58
2023-04-11T18:28:27.328Z,86.09
2023-04-11T18:30:53.916Z,85.56
2023-04-11T18:33:20.898Z,85.60
2023-04-11T18:35:47.782Z,85.51
2023-04-11T18:38:14.542Z,85.38
2023-04-11T18:40:41.232Z,85.75
2023-04-11T18:43:08.272Z,85.06
2023-04-11T18:45:35.352Z,84.27
2023-04-11T18:48:02.193Z,83.60
2023-04-11T18:50:30.668Z,83.18
2023-04-11T18:53:00.487Z,82.61
2023-04-11T18:55:30.710Z,81.83
2023-04-11T18:58:00.102Z,81.15
2023-04-11T19:00:29.473Z,80.24
2023-04-11T19:02:56.399Z,79.81
2023-04-11T19:05:25.354Z,78.46
2023-04-11T19:07:52.243Z,78.71
2023-04-11T19:10:18.806Z,78.85
2023-04-11T19:12:45.319Z,79.08
2023-04-11T19:15:12.177Z,78.29
2023-04-11T19:17:38.979Z,78.84
2023-04-11T19:20:13.135Z,78.38
2023-04-11T19:22:41.026Z,79.20
2023-04-11T19:25:11.309Z,79.14
2023-04-11T19:27:40.304Z,79.79
2023-04-11T19:30:08.789Z,79.23
2023-04-11T19:32:38.461Z,78.85
2023-04-11T19:35:05.571Z,78.20
2023-04-11T19:37:33.583Z,78.16
2023-04-11T19:40:00.257Z,79.40
2023-04-11T19:42:27.710Z,79.53
2023-04-11T19:44:54.166Z,79.86
2023-04-11T19:47:20.972Z,80.49
2023-04-11T19:49:47.502Z,80.47
2023-04-11T19:52:14.018Z,80.15
2023-04-11T19:54:40.524Z,80.38
2023-04-11T19:57:07.068Z,80.36
2023-04-11T19:59:33.541Z,81.33
2023-04-11T20:02:01.686Z,79.86
2023-04-11T20:04:28.371Z,80.46
2023-04-11T20:06:58.374Z,80.24
2023-04-11T20:09:25.132Z,81.36
2023-04-11T20:11:51.734Z,81.03
2023-04-11T20:14:18.408Z,80.28
2023-04-11T20:16:44.999Z,81.02
2023-04-11T20:19:12.352Z,81.78
2023-04-11T20:21:38.851Z,82.31
2023-04-11T20:24:05.442Z,83.30
2023-04-11T20:26:32.087Z,84.11
2023-04-11T20:28:59.998Z,84.14
2023-04-11T20:31:26.573Z,84.19
2023-04-11T20:33:53.155Z,84.53
2023-04-11T20:36:19.898Z,84.46
2023-04-11T20:38:46.557Z,84.24
2023-04-11T20:41:13.594Z,84.56
2023-04-11T20:43:41.978Z,83.26
2023-04-11T20:46:08.658Z,82.93
2023-04-11T20:48:35.407Z,82.18
2023-04-11T20:51:02.137Z,82.89
2023-04-11T20:53:28.679Z,80.93
2023-04-11T20:55:55.485Z,81.11
2023-04-11T20:58:22.264Z,79.91
2023-04-11T21:00:49.189Z,79.99
2023-04-11T21:03:16.212Z,80.44
2023-04-11T21:05:44.183Z,79.91
2023-04-11T21:08:11.948Z,80.40
2023-04-11T21:10:38.728Z,79.76
2023-04-11T21:13:05.266Z,79.41
2023-04-11T21:15:33.313Z,79.49
2023-04-11T21:17:59.943Z,80.01
2023-04-11T21:20:27.061Z,80.36
2023-04-11T21:22:53.729Z,80.30
2023-04-11T21:25:20.876Z,80.75
2023-04-11T21:27:48.127Z,81.39
2023-04-11T21:30:14.823Z,81.12
2023-04-11T21:32:41.406Z,81.85
2023-04-11T21:35:08.999Z,81.94
2023-04-11T21:37:35.646Z,82.37
2023-04-11T21:40:02.783Z,82.78
2023-04-11T21:42:29.416Z,82.60
2023-04-11T21:44:55.912Z,83.44
2023-04-11T21:47:22.413Z,83.56
2023-04-11T21:49:49.016Z,83.91
2023-04-11T21:52:15.579Z,84.58
2023-04-11T21:54:46.801Z,85.16
2023-04-11T21:57:13.683Z,85.17
2023-04-11T21:59:40.343Z,85.29
2023-04-11T22:02:07.060Z,85.34
2023-04-11T22:04:44.305Z,85.12
2023-04-11T22:07:18.235Z,85.29
2023-04-11T22:09:47.088Z,86.01
2023-04-11T22:12:20.030Z,86.43
2023-04-11T22:14:46.636Z,86.80
2023-04-11T22:17:13.144Z,86.97
2023-04-11T22:19:42.280Z,87.18
2023-04-11T22:22:08.994Z,88.21
2023-04-11T22:24:38.214Z,88.15
2023-04-11T22:27:07.545Z,88.41
2023-04-11T22:29:34.642Z,88.29
2023-04-11T22:32:03.761Z,89.33
2023-04-11T22:34:30.773Z,89.62
2023-04-11T22:36:57.790Z,89.76
2023-04-11T22:39:25.489Z,90.05
2023-04-11T22:41:52.403Z,90.45
2023-04-11T22:44:19.177Z,90.95
2023-04-11T22:47:00.266Z,91.34
2023-04-11T22:49:27.116Z,91.62
2023-04-11T22:51:59.199Z,91.59
2023-04-11T22:54:26.812Z,91.90
2023-04-11T22:56:56.530Z,91.34
2023-04-11T22:59:26.446Z,91.63
2023-04-11T23:01:53.005Z,91.58
2023-04-11T23:04:20.145Z,91.98
2023-04-11T23:06:48.702Z,91.56
2023-04-11T23:09:15.319Z,91.58
2023-04-11T23:11:41.960Z,91.08
2023-04-11T23:14:08.558Z,91.48
2023-04-11T23:16:35.327Z,91.08
2023-04-11T23:19:01.816Z,90.49
2023-04-11T23:21:29.507Z,90.31
2023-04-11T23:23:56.754Z,89.96
2023-04-11T23:26:24.269Z,89.76
2023-04-11T23:28:50.793Z,88.99
2023-04-11T23:31:20.232Z,88.72
2023-04-11T23:33:46.809Z,88.15
2023-04-11T23:36:13.812Z,87.90
2023-04-11T23:38:40.367Z,87.39
2023-04-11T23:41:07.111Z,86.09
2023-04-11T23:43:33.673Z,85.09
2023-04-11T23:46:00.595Z,85.22
2023-04-11T23:48:27.272Z,85.53
2023-04-11T23:50:53.796Z,86.18
2023-04-11T23:53:20.716Z,86.41
2023-04-11T23:55:47.309Z,85.85
2023-04-11T23:58:13.779Z,86.11
